createdAt,value
2022-11-18T00:00:09.448Z,6.30
2022-11-18T00:02:10.978Z,6.32
2022-11-18T00:04:12.648Z,6.57
2022-11-18T00:06:23.395Z,6.32
2022-11-18T00:08:25.879Z,6.97
2022-11-18T00:10:27.323Z,6.25
2022-11-18T00:12:47.290Z,7.13
2022-11-18T00:14:48.727Z,5.88
2022-11-18T00:17:01.469Z,6.80
2022-11-18T00:19:02.984Z,7.00
2022-11-18T00:21:07.617Z,7.47
2022-11-18T00:23:09.037Z,6.78
2022-11-18T00:25:10.486Z,8.63
2022-11-18T00:27:11.946Z,6.50
2022-11-18T00:29:13.560Z,8.20
2022-11-18T00:31:15.018Z,6.88
2022-11-18T00:33:16.451Z,7.13
2022-11-18T00:35:17.897Z,6.97
2022-11-18T00:37:19.626Z,8.73
2022-11-18T00:39:22.036Z,6.82
2022-11-18T00:41:23.997Z,6.90
2022-11-18T00:43:25.437Z,7.60
2022-11-18T00:45:26.900Z,6.72
2022-11-18T00:47:28.335Z,6.85
2022-11-18T00:49:29.896Z,7.85
2022-11-18T00:51:31.344Z,7.25
2022-11-18T00:53:32.775Z,8.32
2022-11-18T00:55:34.238Z,7.47
2022-11-18T00:57:35.718Z,7.60
2022-11-18T00:59:37.145Z,7.38
2022-11-18T01:01:38.758Z,7.07
2022-11-18T01:03:40.226Z,7.80
2022-11-18T01:05:41.807Z,7.75
2022-11-18T01:07:43.330Z,8.68
2022-11-18T01:09:44.777Z,7.63
2022-11-18T01:12:04.816Z,10.93
2022-11-18T01:14:06.266Z,9.88
2022-11-18T01:16:07.709Z,8.38
2022-11-18T01:18:09.858Z,10.23
2022-11-18T01:20:11.691Z,7.97
2022-11-18T01:22:13.125Z,10.70
2022-11-18T01:24:14.741Z,9.75
2022-11-18T01:26:17.735Z,10.10
2022-11-18T01:28:23.583Z,8.50
2022-11-18T01:30:25.681Z,8.60
2022-11-18T01:32:28.501Z,10.50
2022-11-18T01:34:30.008Z,8.38
2022-11-18T01:36:31.498Z,8.07
2022-11-18T01:38:32.965Z,8.18
2022-11-18T01:40:35.598Z,10.10
2022-11-18T01:42:37.182Z,8.30
2022-11-18T01:44:59.193Z,7.50
2022-11-18T01:47:00.650Z,7.15
2022-11-18T01:49:09.162Z,8.70
2022-11-18T01:51:14.820Z,10.15
2022-11-18T01:53:23.217Z,7.80
2022-11-18T01:55:27.107Z,8.23
2022-11-18T01:57:30.721Z,8.48
2022-11-18T01:59:36.052Z,8.20
2022-11-18T02:01:37.840Z,7.25
2022-11-18T02:03:39.977Z,9.60
2022-11-18T02:05:43.775Z,10.38
2022-11-18T02:07:45.392Z,7.80
2022-11-18T02:09:46.981Z,8.13
2022-11-18T02:11:51.598Z,7.07
2022-11-18T02:13:53.122Z,7.68
2022-11-18T02:16:10.565Z,7.40
2022-11-18T02:18:30.502Z,6.43
2022-11-18T02:20:36.926Z,9.50
2022-11-18T02:23:00.294Z,6.05
2022-11-18T02:25:31.289Z,5.90
2022-11-18T02:27:54.114Z,9.00
2022-11-18T02:30:04.770Z,5.68
2022-11-18T02:32:13.552Z,5.53
2022-11-18T02:36:22.601Z,5.47
2022-11-18T02:38:28.409Z,4.95
2022-11-18T02:40:34.516Z,5.43
2022-11-18T02:42:39.217Z,4.93
2022-11-18T02:44:45.997Z,5.18
2022-11-18T02:46:52.157Z,5.07
2022-11-18T02:48:55.936Z,4.45
2022-11-18T02:50:58.509Z,5.45
2022-11-18T02:53:02.801Z,4.55
2022-11-18T02:55:09.338Z,5.13
2022-11-18T02:57:11.968Z,5.00
2022-11-18T02:59:19.402Z,5.03
2022-11-18T03:01:27.267Z,4.85
2022-11-18T03:03:36.489Z,5.43
2022-11-18T03:05:48.904Z,5.15
2022-11-18T03:08:01.480Z,5.97
2022-11-18T03:10:03.635Z,5.28
2022-11-18T03:12:15.533Z,4.22
2022-11-18T03:14:22.846Z,5.25
2022-11-18T03:16:32.122Z,3.78
2022-11-18T03:18:39.515Z,4.20
2022-11-18T03:20:51.138Z,4.50
2022-11-18T03:22:58.067Z,3.70
2022-11-18T03:25:13.800Z,5.40
2022-11-18T03:27:19.663Z,4.43
2022-11-18T03:29:29.484Z,4.72
2022-11-18T03:31:41.522Z,4.70
2022-11-18T03:33:51.949Z,4.55
2022-11-18T03:35:54.871Z,4.80
2022-11-18T03:38:04.355Z,5.03
2022-11-18T03:40:28.225Z,5.07
2022-11-18T03:42:45.142Z,7.63
2022-11-18T03:44:52.769Z,5.15
2022-11-18T03:47:04.546Z,4.80
2022-11-18T03:49:09.785Z,5.50
2022-11-18T03:51:15.797Z,5.60
2022-11-18T03:53:20.509Z,6.55
2022-11-18T03:55:30.343Z,6.13
2022-11-18T03:57:47.391Z,6.80
2022-11-18T03:59:54.826Z,5.97
2022-11-18T04:02:11.224Z,7.53
2022-11-18T04:04:13.707Z,7.97
2022-11-18T04:06:36.138Z,8.20
2022-11-18T04:08:41.767Z,7.38
2022-11-18T04:10:52.278Z,7.47
2022-11-18T04:13:32.645Z,8.40
2022-11-18T04:15:37.919Z,7.50
2022-11-18T04:17:41.935Z,8.88
2022-11-18T04:19:43.857Z,8.63
2022-11-18T04:21:48.050Z,7.75
2022-11-18T04:23:49.477Z,9.95
2022-11-18T04:25:50.943Z,7.25
2022-11-18T04:27:52.555Z,8.98
2022-11-18T04:29:54.008Z,8.77
2022-11-18T04:31:55.566Z,11.02
2022-11-18T04:33:57.117Z,10.48
2022-11-18T04:35:58.574Z,10.50
2022-11-18T04:38:00.027Z,10.25
2022-11-18T04:40:01.707Z,11.23
2022-11-18T04:42:03.218Z,11.10
2022-11-18T04:44:12.998Z,15.48
2022-11-18T04:46:14.693Z,11.02
2022-11-18T04:48:16.203Z,10.15
2022-11-18T04:50:17.753Z,12.05
2022-11-18T04:52:19.466Z,10.70
2022-11-18T04:54:21.463Z,13.10
2022-11-18T04:56:22.902Z,13.63
2022-11-18T04:58:24.370Z,12.52
2022-11-18T05:00:25.874Z,11.90
2022-11-18T05:02:27.327Z,11.10
2022-11-18T05:04:30.958Z,11.10
2022-11-18T05:06:33.993Z,9.43
2022-11-18T05:08:35.505Z,8.93
2022-11-18T05:10:38.747Z,9.93
2022-11-18T05:12:49.082Z,9.90
2022-11-18T05:14:51.186Z,8.50
2022-11-18T05:16:53.340Z,8.95
2022-11-18T05:18:54.866Z,13.73
2022-11-18T05:20:56.358Z,12.73
2022-11-18T05:22:57.794Z,13.63
2022-11-18T05:24:59.307Z,11.48
2022-11-18T05:27:00.782Z,11.55
2022-11-18T05:29:02.247Z,12.60
2022-11-18T05:31:14.400Z,10.18
2022-11-18T05:33:15.835Z,13.52
2022-11-18T05:35:17.296Z,12.43
2022-11-18T05:37:18.734Z,15.00
2022-11-18T05:39:20.576Z,12.77
2022-11-18T05:41:40.823Z,11.23
2022-11-18T05:43:42.240Z,12.73
2022-11-18T05:45:44.373Z,11.48
2022-11-18T05:48:00.829Z,11.20
2022-11-18T05:50:02.429Z,13.95
2022-11-18T05:52:04.162Z,12.10
2022-11-18T05:54:08.988Z,16.85
2022-11-18T05:56:17.978Z,14.02
2022-11-18T05:58:19.531Z,14.43
2022-11-18T06:00:21.253Z,14.57
2022-11-18T06:02:24.462Z,13.55
2022-11-18T06:04:35.086Z,13.95
2022-11-18T06:06:37.241Z,15.27
2022-11-18T06:08:46.334Z,14.15
2022-11-18T06:10:49.627Z,14.50
2022-11-18T06:12:55.654Z,13.95
2022-11-18T06:15:03.073Z,16.00
2022-11-18T06:17:08.879Z,14.73
2022-11-18T06:19:10.621Z,13.20
2022-11-18T06:21:12.707Z,13.18
2022-11-18T06:23:14.470Z,13.05
2022-11-18T06:25:16.366Z,13.63
2022-11-18T06:27:18.843Z,18.63
2022-11-18T06:29:27.264Z,13.70
2022-11-18T06:31:29.263Z,14.73
2022-11-18T06:33:30.715Z,13.60
2022-11-18T06:35:32.516Z,14.85
2022-11-18T06:37:34.155Z,14.65
2022-11-18T06:39:37.346Z,13.93
2022-11-18T06:41:38.883Z,13.95
2022-11-18T06:43:41.716Z,14.95
2022-11-18T06:46:08.687Z,13.95
2022-11-18T06:48:10.668Z,12.85
2022-11-18T06:50:12.128Z,15.93
2022-11-18T06:52:13.575Z,14.80
2022-11-18T06:54:15.094Z,14.68
2022-11-18T06:56:18.365Z,13.43
2022-11-18T06:58:19.812Z,13.23
2022-11-18T07:00:21.498Z,14.50
2022-11-18T07:02:22.955Z,13.70
2022-11-18T07:04:24.473Z,13.65
2022-11-18T07:06:28.427Z,13.77
2022-11-18T07:08:29.885Z,11.90
2022-11-18T07:10:31.313Z,14.25
2022-11-18T07:12:32.770Z,15.00
2022-11-18T07:14:34.327Z,13.23
2022-11-18T07:16:36.751Z,14.45
2022-11-18T07:18:40.869Z,12.38
2022-11-18T07:20:42.359Z,14.90
2022-11-18T07:22:43.813Z,14.18
2022-11-18T07:24:45.303Z,17.63
2022-11-18T07:26:47.002Z,13.50
2022-11-18T07:28:48.973Z,14.68
2022-11-18T07:30:50.754Z,15.07
2022-11-18T07:32:52.169Z,16.10
2022-11-18T07:34:53.634Z,21.38
2022-11-18T07:36:55.072Z,18.65
2022-11-18T07:39:00.125Z,16.85
2022-11-18T07:41:13.323Z,15.00
2022-11-18T07:43:14.742Z,16.08
2022-11-18T07:45:16.259Z,15.98
2022-11-18T07:47:17.691Z,19.40
2022-11-18T07:49:19.593Z,18.10
2022-11-18T07:51:23.869Z,16.75
2022-11-18T07:53:25.304Z,17.88
2022-11-18T07:55:31.918Z,14.55
2022-11-18T07:57:33.681Z,16.55
2022-11-18T07:59:35.134Z,16.80
2022-11-18T08:01:36.586Z,16.42
2022-11-18T08:03:38.451Z,15.15
2022-11-18T08:05:40.086Z,15.70
2022-11-18T08:07:41.647Z,18.77
2022-11-18T08:09:43.185Z,16.25
2022-11-18T08:11:44.654Z,14.63
2022-11-18T08:13:46.254Z,15.70
2022-11-18T08:15:47.691Z,19.50
2022-11-18T08:17:49.370Z,17.85
2022-11-18T08:19:50.835Z,18.27
2022-11-18T08:21:52.295Z,17.20
2022-11-18T08:23:56.443Z,16.33
2022-11-18T08:26:07.307Z,17.42
2022-11-18T08:28:08.838Z,16.05
2022-11-18T08:30:11.011Z,24.73
2022-11-18T08:32:12.481Z,15.20
2022-11-18T08:34:15.049Z,16.10
2022-11-18T08:36:20.771Z,17.42
2022-11-18T08:38:22.257Z,18.13
2022-11-18T08:40:24.151Z,24.85
2022-11-18T08:42:29.947Z,21.38
2022-11-18T08:46:36.069Z,16.52
2022-11-18T08:48:37.549Z,18.15
2022-11-18T08:50:39.005Z,21.67
2022-11-18T08:52:40.513Z,25.33
2022-11-18T08:54:41.956Z,17.88
2022-11-18T08:56:43.560Z,20.08
2022-11-18T08:58:45.364Z,68.90
2022-11-18T09:00:46.818Z,19.98
2022-11-18T09:02:48.279Z,22.67
2022-11-18T09:04:52.444Z,23.73
2022-11-18T09:06:53.970Z,19.88
2022-11-18T09:08:55.528Z,20.33
2022-11-18T09:10:56.949Z,27.35
2022-11-18T09:13:12.201Z,24.58
2022-11-18T09:15:20.028Z,18.92
2022-11-18T09:17:21.697Z,20.08
2022-11-18T09:19:46.108Z,22.92
2022-11-18T09:21:46.043Z,27.60
2022-11-18T09:23:47.957Z,21.55
2022-11-18T09:25:56.687Z,31.95
2022-11-18T09:27:58.162Z,25.10
2022-11-18T09:29:59.760Z,22.63
2022-11-18T09:32:02.213Z,22.02
2022-11-18T09:34:03.672Z,22.30
2022-11-18T09:36:11.105Z,24.15
2022-11-18T09:38:12.662Z,40.70
2022-11-18T09:40:17.846Z,29.40
2022-11-18T09:42:39.465Z,27.50
2022-11-18T09:45:14.011Z,24.20
2022-11-18T09:47:33.889Z,27.08
2022-11-18T09:49:38.698Z,25.77
2022-11-18T09:51:46.503Z,33.08
2022-11-18T09:53:47.990Z,27.17
2022-11-18T09:55:52.052Z,24.17
2022-11-18T09:57:56.804Z,43.78
2022-11-18T09:59:58.967Z,27.15
2022-11-18T10:02:13.916Z,23.52
2022-11-18T10:04:17.783Z,26.50
2022-11-18T10:06:29.357Z,23.58
2022-11-18T10:09:00.273Z,27.67
2022-11-18T10:11:14.319Z,27.77
2022-11-18T10:13:41.397Z,29.38
2022-11-18T10:16:00.532Z,27.48
2022-11-18T10:18:59.334Z,27.50
2022-11-18T10:21:04.940Z,25.67
2022-11-18T10:23:09.491Z,27.17
2022-11-18T10:25:16.661Z,33.50
2022-11-18T10:27:19.056Z,29.58
2022-11-18T10:29:20.553Z,25.60
2022-11-18T10:31:22.016Z,27.80
2022-11-18T10:33:23.420Z,24.85
2022-11-18T10:35:37.275Z,25.13
2022-11-18T10:38:06.220Z,24.60
2022-11-18T10:40:03.313Z,23.65
2022-11-18T10:42:07.073Z,22.80
2022-11-18T10:44:27.635Z,22.73
2022-11-18T10:46:39.171Z,21.38
2022-11-18T10:48:40.675Z,26.08
2022-11-18T10:50:55.822Z,24.38
2022-11-18T10:52:57.749Z,21.30
2022-11-18T10:55:14.274Z,24.13
2022-11-18T10:57:23.053Z,21.23
2022-11-18T11:01:30.320Z,24.65
2022-11-18T11:03:35.057Z,22.45
2022-11-18T11:05:36.502Z,22.92
2022-11-18T11:07:38.130Z,20.80
2022-11-18T11:09:39.829Z,20.45
2022-11-18T11:11:45.195Z,24.02
2022-11-18T11:13:46.713Z,22.23
2022-11-18T11:15:51.501Z,21.17
2022-11-18T11:18:39.761Z,19.05
2022-11-18T11:20:41.287Z,21.70
2022-11-18T11:22:43.063Z,21.17
2022-11-18T11:24:44.833Z,21.65
2022-11-18T11:29:25.776Z,20.67
2022-11-18T11:31:43.200Z,20.85
2022-11-18T11:33:56.737Z,25.20
2022-11-18T11:36:07.575Z,16.35
2022-11-18T11:38:17.790Z,22.15
2022-11-18T11:40:22.298Z,19.30
2022-11-18T11:43:01.344Z,17.80
2022-11-18T11:45:02.733Z,19.45
2022-11-18T11:47:40.775Z,17.65
2022-11-18T11:50:21.768Z,18.48
2022-11-18T11:52:37.441Z,17.48
2022-11-18T11:55:29.682Z,19.98
2022-11-18T11:58:03.958Z,17.08
2022-11-18T12:00:12.206Z,16.95
2022-11-18T12:02:25.493Z,19.05
2022-11-18T12:04:36.941Z,17.90
2022-11-18T12:06:39.168Z,14.07
2022-11-18T12:08:52.742Z,15.13
2022-11-18T12:11:03.380Z,14.93
2022-11-18T12:13:41.935Z,16.98
2022-11-18T12:18:24.225Z,15.98
2022-11-18T12:20:39.792Z,13.73
2022-11-18T12:23:09.239Z,15.90
2022-11-18T12:25:48.541Z,14.85
2022-11-18T12:27:51.175Z,13.82
2022-11-18T12:30:01.715Z,15.50
2022-11-18T12:32:03.906Z,13.77
2022-11-18T12:34:18.910Z,14.05
2022-11-18T12:36:27.364Z,17.10
2022-11-18T12:38:31.475Z,14.25
2022-11-18T12:40:52.337Z,13.68
2022-11-18T12:43:13.746Z,15.40
2022-11-18T12:45:46.633Z,14.50
2022-11-18T12:47:48.134Z,14.35
2022-11-18T12:50:13.083Z,14.02
2022-11-18T12:52:29.682Z,15.32
2022-11-18T12:54:48.966Z,16.15
2022-11-18T12:56:51.274Z,15.38
2022-11-18T12:58:58.006Z,16.30
2022-11-18T13:01:08.276Z,16.13
2022-11-18T13:03:09.753Z,15.82
2022-11-18T13:05:19.306Z,15.65
2022-11-18T13:07:38.998Z,15.68
2022-11-18T13:09:41.506Z,16.67
2022-11-18T13:11:56.431Z,18.58
2022-11-18T13:14:16.740Z,18.75
2022-11-18T13:16:43.267Z,22.02
2022-11-18T13:18:52.552Z,17.20
2022-11-18T13:21:19.512Z,18.70
2022-11-18T13:23:48.621Z,18.05
2022-11-18T13:25:50.860Z,21.42
2022-11-18T13:28:09.529Z,19.23
2022-11-18T13:32:28.088Z,22.77
2022-11-18T13:34:31.725Z,18.90
2022-11-18T13:36:33.361Z,19.02
2022-11-18T13:38:34.963Z,20.90
2022-11-18T13:41:04.487Z,19.38
2022-11-18T13:43:06.125Z,22.48
2022-11-18T13:45:13.401Z,21.05
2022-11-18T13:47:36.991Z,20.35
2022-11-18T13:49:53.582Z,19.13
2022-11-18T13:51:56.878Z,18.40
2022-11-18T13:53:58.591Z,18.88
2022-11-18T13:56:14.683Z,17.92
2022-11-18T13:58:19.180Z,33.30
2022-11-18T14:00:26.951Z,18.20
2022-11-18T14:02:28.623Z,19.57
2022-11-18T14:04:32.082Z,17.90
2022-11-18T14:06:34.693Z,22.15
2022-11-18T14:08:38.820Z,17.75
2022-11-18T14:10:44.610Z,42.80
2022-11-18T14:12:58.872Z,19.70
2022-11-18T14:15:16.715Z,20.00
2022-11-18T14:17:26.900Z,20.52
2022-11-18T14:19:31.002Z,23.95
2022-11-18T14:21:35.175Z,21.20
2022-11-18T14:23:37.411Z,18.67
2022-11-18T14:25:44.153Z,19.42
2022-11-18T14:27:48.671Z,19.23
2022-11-18T14:29:50.484Z,21.75
2022-11-18T14:32:10.884Z,18.25
2022-11-18T14:34:26.696Z,21.48
2022-11-18T14:36:28.143Z,23.50
2022-11-18T14:38:51.963Z,19.58
2022-11-18T14:41:03.347Z,20.27
2022-11-18T14:43:05.135Z,19.63
2022-11-18T14:45:06.801Z,24.88
2022-11-18T14:47:23.695Z,21.27
2022-11-18T14:49:27.519Z,20.50
2022-11-18T14:51:29.277Z,20.90
2022-11-18T14:53:30.760Z,20.90
2022-11-18T14:55:32.284Z,20.90
2022-11-18T14:57:33.742Z,20.48
2022-11-18T14:59:35.191Z,21.80
2022-11-18T15:01:36.718Z,18.83
2022-11-18T15:03:38.741Z,21.77
2022-11-18T15:05:40.788Z,24.70
2022-11-18T15:07:42.369Z,21.42
2022-11-18T15:09:44.260Z,21.15
2022-11-18T15:11:45.743Z,19.40
2022-11-18T15:13:47.799Z,20.80
2022-11-18T15:15:49.339Z,18.88
2022-11-18T15:17:53.708Z,17.20
2022-11-18T15:19:55.572Z,22.88
2022-11-18T15:21:57.006Z,20.08
2022-11-18T15:23:58.430Z,21.33
2022-11-18T15:25:59.850Z,19.45
2022-11-18T15:28:01.663Z,18.17
2022-11-18T15:30:04.439Z,18.25
2022-11-18T15:32:06.553Z,19.17
2022-11-18T15:34:07.993Z,19.63
2022-11-18T15:36:12.964Z,20.80
2022-11-18T15:38:14.398Z,21.58
2022-11-18T15:40:16.083Z,17.48
2022-11-18T15:42:22.985Z,18.60
2022-11-18T15:44:24.954Z,17.55
2022-11-18T15:46:27.940Z,17.15
2022-11-18T15:48:29.365Z,16.58
2022-11-18T15:50:30.822Z,16.55
2022-11-18T15:52:32.336Z,16.10
2022-11-18T15:54:33.764Z,18.23
2022-11-18T15:56:35.342Z,17.17
2022-11-18T15:58:39.816Z,16.25
2022-11-18T16:00:44.755Z,15.77
2022-11-18T16:02:46.675Z,18.50
2022-11-18T16:04:48.215Z,19.70
2022-11-18T16:06:49.644Z,13.60
2022-11-18T16:08:57.582Z,14.32
2022-11-18T16:11:18.951Z,18.80
2022-11-18T16:13:21.465Z,19.02
2022-11-18T16:15:41.585Z,14.73
2022-11-18T16:17:42.981Z,14.13
2022-11-18T16:19:44.408Z,14.40
2022-11-18T16:21:48.489Z,15.68
2022-11-18T16:23:49.977Z,15.77
2022-11-18T16:25:53.300Z,15.13
2022-11-18T16:27:55.606Z,13.38
2022-11-18T16:29:57.107Z,12.70
2022-11-18T16:31:58.539Z,14.55
2022-11-18T16:33:59.968Z,13.55
2022-11-18T16:36:01.449Z,11.00
2022-11-18T16:38:02.937Z,10.75
2022-11-18T16:40:04.700Z,13.13
2022-11-18T16:42:09.026Z,11.88
2022-11-18T16:44:13.700Z,10.18
2022-11-18T16:46:15.145Z,9.27
2022-11-18T16:48:16.545Z,10.35
2022-11-18T16:50:17.972Z,10.18
2022-11-18T16:52:19.421Z,10.00
2022-11-18T16:54:23.159Z,7.35
2022-11-18T16:56:26.985Z,8.55
2022-11-18T16:58:28.398Z,6.93
2022-11-18T17:00:59.829Z,8.63
2022-11-18T17:02:52.186Z,5.68
2022-11-18T17:04:53.608Z,6.30
2022-11-18T17:06:56.000Z,6.75
2022-11-18T17:09:01.151Z,6.63
2022-11-18T17:11:10.219Z,5.65
2022-11-18T17:13:11.629Z,5.32
2022-11-18T17:15:14.133Z,5.97
2022-11-18T17:17:15.545Z,5.28
2022-11-18T17:19:19.889Z,6.28
2022-11-18T17:21:21.996Z,5.03
2022-11-18T17:23:23.444Z,4.65
2022-11-18T17:25:24.931Z,4.85
2022-11-18T17:27:26.341Z,6.22
2022-11-18T17:29:27.840Z,5.68
2022-11-18T17:31:29.371Z,5.00
2022-11-18T17:33:30.800Z,5.65
2022-11-18T17:35:32.245Z,6.43
2022-11-18T17:37:33.825Z,5.28
2022-11-18T17:39:35.599Z,7.65
2022-11-18T17:41:55.432Z,5.97
2022-11-18T17:44:01.051Z,5.85
2022-11-18T17:46:02.932Z,5.25
2022-11-18T17:48:04.485Z,5.07
2022-11-18T17:50:06.278Z,5.38
2022-11-18T17:52:07.931Z,4.85
2022-11-18T17:54:10.020Z,5.07
2022-11-18T17:56:11.517Z,6.32
2022-11-18T17:58:13.682Z,5.30
2022-11-18T18:00:15.562Z,8.45
2022-11-18T18:02:18.686Z,10.43
2022-11-18T18:04:21.437Z,6.78
2022-11-18T18:06:23.233Z,5.53
2022-11-18T18:08:24.663Z,6.38
2022-11-18T18:10:26.859Z,4.78
2022-11-18T18:12:46.903Z,4.38
2022-11-18T18:14:48.347Z,4.63
2022-11-18T18:16:50.997Z,4.30
2022-11-18T18:18:52.604Z,4.55
2022-11-18T18:20:54.198Z,4.18
2022-11-18T18:22:56.296Z,5.75
2022-11-18T18:24:57.775Z,5.30
2022-11-18T18:27:00.565Z,4.20
2022-11-18T18:29:02.892Z,3.67
2022-11-18T18:31:08.052Z,3.30
2022-11-18T18:33:09.486Z,4.05
2022-11-18T18:35:11.310Z,3.75
2022-11-18T18:37:12.809Z,3.45
2022-11-18T18:39:14.291Z,3.97
2022-11-18T18:41:18.028Z,6.65
2022-11-18T18:43:20.060Z,3.38
2022-11-18T18:45:39.681Z,5.47
2022-11-18T18:47:41.192Z,3.03
2022-11-18T18:49:42.933Z,4.40
2022-11-18T18:51:48.826Z,3.58
2022-11-18T18:53:50.290Z,4.30
2022-11-18T18:55:55.965Z,3.60
2022-11-18T18:57:57.383Z,3.20
2022-11-18T18:59:58.855Z,3.45
2022-11-18T19:02:00.769Z,3.38
2022-11-18T19:04:05.093Z,3.28
2022-11-18T19:06:49.107Z,3.60
2022-11-18T19:08:44.643Z,3.33
2022-11-18T19:10:46.065Z,3.60
2022-11-18T19:12:52.079Z,3.28
2022-11-18T19:14:53.583Z,3.97
2022-11-18T19:16:56.303Z,3.20
2022-11-18T19:18:58.730Z,3.17
2022-11-18T19:21:00.249Z,3.13
2022-11-18T19:23:09.715Z,5.13
2022-11-18T19:25:11.717Z,3.25
2022-11-18T19:27:13.221Z,4.13
2022-11-18T19:29:14.722Z,5.15
2022-11-18T19:31:18.178Z,3.45
2022-11-18T19:33:19.811Z,4.65
2022-11-18T19:35:22.627Z,3.40
2022-11-18T19:37:24.069Z,3.80
2022-11-18T19:39:25.871Z,3.45
2022-11-18T19:41:27.285Z,4.00
2022-11-18T19:43:29.178Z,3.65
2022-11-18T19:45:30.600Z,3.83
2022-11-18T19:47:32.217Z,3.90
2022-11-18T19:49:33.662Z,4.55
2022-11-18T19:51:36.701Z,4.57
2022-11-18T19:53:39.870Z,4.40
2022-11-18T19:55:41.308Z,3.85
2022-11-18T19:57:42.762Z,3.95
2022-11-18T19:59:45.804Z,3.95
2022-11-18T20:01:47.799Z,5.93
2022-11-18T20:03:50.770Z,4.30
2022-11-18T20:05:52.219Z,4.13
2022-11-18T20:07:55.805Z,4.10
2022-11-18T20:09:57.226Z,3.83
2022-11-18T20:11:58.687Z,3.72
2022-11-18T20:14:00.152Z,3.40
2022-11-18T20:16:06.242Z,4.20
2022-11-18T20:18:08.297Z,3.75
2022-11-18T20:20:10.307Z,4.90
2022-11-18T20:22:11.769Z,6.10
2022-11-18T20:24:18.286Z,3.75
2022-11-18T20:26:22.051Z,5.57
2022-11-18T20:28:23.494Z,4.05
2022-11-18T20:30:24.942Z,4.75
2022-11-18T20:32:26.357Z,4.45
2022-11-18T20:34:27.900Z,3.80
2022-11-18T20:36:32.322Z,3.72
2022-11-18T20:38:34.391Z,4.57
2022-11-18T20:40:35.865Z,6.05
2022-11-18T20:42:56.237Z,7.38
2022-11-18T20:44:57.652Z,3.90
2022-11-18T20:46:59.111Z,4.13
2022-11-18T20:49:00.625Z,3.97
2022-11-18T20:51:06.502Z,4.30
2022-11-18T20:53:07.955Z,4.20
2022-11-18T20:55:10.484Z,6.45
2022-11-18T20:57:11.928Z,4.28
2022-11-18T20:59:14.490Z,3.78
2022-11-18T21:01:18.698Z,5.30
2022-11-18T21:03:21.253Z,5.03
2022-11-18T21:05:22.730Z,4.80
2022-11-18T21:07:24.192Z,4.90
2022-11-18T21:09:26.409Z,4.50
2022-11-18T21:11:28.484Z,6.95
2022-11-18T21:13:49.533Z,6.15
2022-11-18T21:15:51.201Z,4.00
2022-11-18T21:17:52.695Z,4.32
2022-11-18T21:19:54.128Z,4.15
2022-11-18T21:21:56.586Z,4.50
2022-11-18T21:24:00.120Z,6.05
2022-11-18T21:26:02.441Z,5.78
2022-11-18T21:28:04.756Z,4.88
2022-11-18T21:30:06.913Z,4.85
2022-11-18T21:32:08.417Z,4.40
2022-11-18T21:34:11.335Z,4.28
2022-11-18T21:36:12.757Z,5.25
2022-11-18T21:38:14.167Z,5.57
2022-11-18T21:40:15.916Z,4.55
2022-11-18T21:42:17.385Z,5.38
2022-11-18T21:44:18.959Z,4.50
2022-11-18T21:46:20.631Z,6.13
2022-11-18T21:48:22.031Z,4.88
2022-11-18T21:50:23.568Z,5.68
2022-11-18T21:52:24.963Z,4.57
2022-11-18T21:54:26.413Z,5.07
2022-11-18T21:56:32.959Z,4.65
2022-11-18T21:58:34.442Z,5.10
2022-11-18T22:00:35.980Z,5.15
2022-11-18T22:02:37.516Z,5.13
2022-11-18T22:04:54.232Z,4.97
2022-11-18T22:06:55.695Z,4.55
2022-11-18T22:08:57.279Z,4.82
2022-11-18T22:10:58.709Z,4.60
2022-11-18T22:13:00.112Z,4.60
2022-11-18T22:15:01.558Z,6.82
2022-11-18T22:17:03.836Z,5.38
2022-11-18T22:19:08.286Z,5.13
2022-11-18T22:21:15.902Z,5.68
2022-11-18T22:23:18.247Z,6.00
2022-11-18T22:25:19.677Z,5.10
2022-11-18T22:27:21.107Z,7.40
2022-11-18T22:29:24.302Z,5.22
2022-11-18T22:31:27.869Z,4.93
2022-11-18T22:33:30.025Z,5.05
2022-11-18T22:35:31.463Z,5.50
2022-11-18T22:37:32.872Z,7.55
2022-11-18T22:39:34.290Z,6.60
2022-11-18T22:41:54.433Z,9.95
2022-11-18T22:43:56.015Z,6.70
2022-11-18T22:46:00.973Z,6.95
2022-11-18T22:48:02.416Z,7.40
2022-11-18T22:50:04.259Z,5.97
2022-11-18T22:52:05.733Z,6.30
2022-11-18T22:54:38.338Z,7.78
2022-11-18T22:56:29.753Z,5.07
2022-11-18T22:58:31.730Z,6.10
2022-11-18T23:00:33.160Z,6.82
2022-11-18T23:02:34.575Z,7.47
2022-11-18T23:04:36.068Z,5.82
2022-11-18T23:06:37.512Z,6.40
2022-11-18T23:08:40.943Z,6.05
2022-11-18T23:10:42.376Z,6.57
2022-11-18T23:13:04.048Z,12.18
2022-11-18T23:15:06.046Z,5.57
2022-11-18T23:17:07.483Z,7.13
2022-11-18T23:19:14.383Z,7.05
2022-11-18T23:21:15.913Z,5.68
2022-11-18T23:23:17.485Z,7.05
2022-11-18T23:25:18.906Z,6.97
2022-11-18T23:27:20.576Z,7.18
2022-11-18T23:29:22.521Z,7.43
2022-11-18T23:31:26.309Z,5.10
2022-11-18T23:33:27.737Z,5.82
2022-11-18T23:35:29.161Z,5.35
2022-11-18T23:37:30.597Z,5.68
2022-11-18T23:39:32.008Z,5.30
2022-11-18T23:41:33.546Z,10.10
2022-11-18T23:43:36.118Z,5.78
2022-11-18T23:45:37.516Z,5.68
2022-11-18T23:47:39.021Z,7.45
2022-11-18T23:49:40.589Z,8.07
2022-11-18T23:51:42.258Z,5.65
2022-11-18T23:53:44.978Z,6.68
2022-11-18T23:55:46.410Z,6.20
2022-11-18T23:57:47.838Z,7.05
2022-11-18T23:59:49.270Z,6.53
